Time;durP1;ratioP1;P1;durP2;ratioP2;P2;SDS_P1;SDS_P2;PMS_P1;PMS_P2;Temp;Humidity;BMP_temperature;BMP_pressure;BME280_temperature;BME280_humidity;BME280_pressure;Samples;Min_cycle;Max_cycle;Signal;HPM_P1;HPM_P2
2022/06/02 00:00:10;;;;;;;8.63;6.13;;;;;;;14.10;83.79;96095.69;10356036;28;96927;-71
2022/06/02 00:05:21;;;;;;;9.32;7.72;;;;;;;14.11;83.57;96097.34;10234596;28;97769;-70
2022/06/02 00:10:33;;;;;;;8.63;6.88;;;;;;;14.16;84.00;96110.78;10229816;28;98545;-70
2022/06/02 00:15:42;;;;;;;9.48;6.65;;;;;;;14.00;84.16;96116.91;10228091;28;97789;-71
2022/06/02 00:20:51;;;;;;;7.25;6.50;;;;;;;13.91;83.89;96108.25;10230839;28;100804;-71
2022/06/02 00:26:06;;;;;;;9.85;6.63;;;;;;;13.83;83.99;96121.44;10226492;28;98761;-71
2022/06/02 00:31:21;;;;;;;8.48;6.78;;;;;;;13.67;84.62;96113.63;10226198;28;97453;-71
2022/06/02 00:36:28;;;;;;;7.25;5.97;;;;;;;13.65;85.37;96128.72;10221863;28;97208;-71
2022/06/02 00:41:44;;;;;;;8.00;5.68;;;;;;;13.69;84.85;96119.53;10341445;28;98997;-71
2022/06/02 00:46:55;;;;;;;7.70;5.63;;;;;;;13.69;84.24;96135.28;10373187;28;97039;-71
2022/06/02 00:52:15;;;;;;;8.57;6.60;;;;;;;13.68;84.52;96136.28;10372658;28;97810;-71
2022/06/02 00:57:31;;;;;;;9.80;6.43;;;;;;;13.70;84.19;96136.91;10352512;28;97790;-70
2022/06/02 01:02:45;;;;;;;8.43;6.60;;;;;;;13.65;84.42;96134.78;10361533;28;97016;-71
2022/06/02 01:07:56;;;;;;;10.13;6.27;;;;;;;13.51;84.74;96127.63;10366342;28;98648;-70
2022/06/02 01:13:11;;;;;;;8.77;7.13;;;;;;;13.39;84.93;96135.03;10377246;28;97801;-70
2022/06/02 01:18:25;;;;;;;8.43;6.72;;;;;;;13.41;85.22;96133.06;10373261;28;97058;-70
2022/06/02 01:23:49;;;;;;;8.27;6.93;;;;;;;13.33;84.99;96125.22;10356898;28;97467;-70
2022/06/02 01:28:59;;;;;;;9.88;6.88;;;;;;;13.26;85.40;96114.59;10377357;28;100250;-71
2022/06/02 01:34:13;;;;;;;8.73;7.15;;;;;;;13.24;84.79;96114.75;10368068;28;97073;-70
2022/06/02 01:39:32;;;;;;;8.87;6.00;;;;;;;13.28;84.93;96119.66;10367406;28;97960;-70
2022/06/02 01:44:43;;;;;;;10.88;5.95;;;;;;;13.23;84.85;96117.53;10366802;28;98747;-70
2022/06/02 01:50:02;;;;;;;8.27;6.35;;;;;;;13.20;85.10;96105.59;10367534;28;96878;-71
2022/06/02 01:55:18;;;;;;;8.82;5.85;;;;;;;13.19;84.98;96114.44;10367074;28;96923;-70
2022/06/02 02:00:24;;;;;;;10.23;5.90;;;;;;;13.13;84.56;96104.59;10364564;28;98507;-70
2022/06/02 02:05:42;;;;;;;6.80;5.63;;;;;;;13.11;84.71;96111.81;10369538;28;97767;-70
2022/06/02 02:10:58;;;;;;;8.77;5.45;;;;;;;12.92;84.78;96101.69;10369178;28;98491;-70
2022/06/02 02:16:18;;;;;;;6.20;5.40;;;;;;;12.84;84.96;96090.19;10364196;28;98221;-70
2022/06/02 02:21:30;;;;;;;7.60;5.45;;;;;;;12.82;85.25;96075.59;10364413;28;98818;-70
2022/06/02 02:26:37;;;;;;;10.05;5.07;;;;;;;12.83;85.31;96085.91;10362548;28;97088;-71
2022/06/02 02:31:50;;;;;;;9.15;5.57;;;;;;;12.80;85.22;96091.50;10370863;28;100216;-70
2022/06/02 02:37:03;;;;;;;9.55;5.70;;;;;;;12.85;85.09;96091.81;10364622;27;97835;-70
2022/06/02 02:42:12;;;;;;;8.57;5.03;;;;;;;12.86;85.20;96103.94;10365327;28;98974;-70
2022/06/02 02:47:21;;;;;;;10.32;6.07;;;;;;;12.82;85.01;96094.78;10356791;28;97268;-70
2022/06/02 02:52:36;;;;;;;7.50;5.30;;;;;;;12.83;85.47;96100.84;10368564;28;100243;-70
2022/06/02 02:57:47;;;;;;;7.75;5.40;;;;;;;12.90;85.06;96103.63;10366791;28;96956;-70
2022/06/02 03:03:08;;;;;;;9.55;5.82;;;;;;;12.84;84.99;96103.31;10361826;28;97157;-70
2022/06/02 03:08:19;;;;;;;9.65;6.05;;;;;;;12.81;85.27;96108.06;10365275;28;98738;-70
2022/06/02 03:13:33;;;;;;;7.28;5.95;;;;;;;12.69;85.89;96113.63;10365446;28;98403;-70
2022/06/02 03:19:03;;;;;;;6.90;5.60;;;;;;;12.62;86.21;96132.78;10364888;28;97700;-71
2022/06/02 03:24:29;;;;;;;6.80;6.10;;;;;;;12.68;85.60;96124.25;10362211;28;98609;-70
2022/06/02 03:29:50;;;;;;;7.15;6.18;;;;;;;12.77;85.77;96125.06;10368707;28;96995;-70
2022/06/02 03:35:00;;;;;;;8.38;6.00;;;;;;;12.81;85.82;96135.06;10362451;28;97134;-70
2022/06/02 03:40:15;;;;;;;8.10;6.68;;;;;;;12.85;85.89;96128.50;10368135;28;97271;-70
2022/06/02 03:45:33;;;;;;;9.15;5.90;;;;;;;12.90;86.31;96138.53;10362707;28;98486;-70
2022/06/02 03:50:56;;;;;;;8.68;6.10;;;;;;;12.97;85.72;96151.81;10363082;28;97895;-70
2022/06/02 03:56:13;;;;;;;6.78;6.10;;;;;;;13.04;85.59;96137.88;10363798;28;96890;-71
2022/06/02 04:01:20;;;;;;;9.13;6.53;;;;;;;13.10;85.85;96125.94;10364386;28;98639;-70
2022/06/02 04:06:40;;;;;;;11.93;7.32;;;;;;;13.15;85.34;96114.91;10355694;28;100547;-70
2022/06/02 04:17:37;;;;;;;6.35;4.70;;;;;;;13.09;85.48;96129.53;10363743;28;98375;-70
2022/06/02 04:22:55;;;;;;;6.97;5.45;;;;;;;13.17;85.95;96137.38;10360988;28;97170;-71
2022/06/02 04:28:08;;;;;;;7.53;5.55;;;;;;;13.22;85.22;96129.84;10364486;28;98916;-70
2022/06/02 04:33:17;;;;;;;6.85;4.97;;;;;;;13.19;85.64;96138.03;10359170;28;97912;-71
2022/06/02 04:38:29;;;;;;;9.25;5.47;;;;;;;13.21;85.35;96148.38;10364673;28;98910;-71
2022/06/02 04:43:44;;;;;;;6.82;5.38;;;;;;;13.28;85.78;96144.09;10368959;28;98594;-70
2022/06/02 04:48:49;;;;;;;;;;;;;;;13.49;84.67;96158.47;10367694;28;99519;-70
2022/06/02 04:54:04;;;;;;;7.22;5.72;;;;;;;13.54;84.77;96159.59;10375656;28;96834;-70
2022/06/02 04:59:12;;;;;;;9.95;6.57;;;;;;;13.50;85.39;96168.81;10363945;28;99225;-71
2022/06/02 05:04:31;;;;;;;9.07;5.75;;;;;;;13.53;84.90;96165.81;10367793;28;98055;-71
2022/06/02 05:09:38;;;;;;;7.55;5.30;;;;;;;13.62;85.42;96162.22;10380544;28;97216;-70
2022/06/02 05:14:50;;;;;;;8.48;5.50;;;;;;;13.81;85.14;96150.50;10381057;28;96876;-70
2022/06/02 05:20:13;;;;;;;9.30;6.00;;;;;;;13.97;84.47;96136.47;10372672;28;96881;-71
2022/06/02 05:25:46;;;;;;;9.45;5.93;;;;;;;13.99;84.98;96144.19;10370973;28;97750;-71
2022/06/02 05:31:10;;;;;;;8.95;5.47;;;;;;;14.00;85.49;96151.06;10360751;28;98117;-71
2022/06/02 05:36:31;;;;;;;8.47;5.97;;;;;;;14.20;84.93;96151.47;10361739;28;99427;-70
2022/06/02 05:41:59;;;;;;;9.18;5.72;;;;;;;14.36;84.58;96145.34;10362928;28;98628;-70
2022/06/02 05:47:21;;;;;;;8.77;5.25;;;;;;;14.51;85.36;96166.44;10363553;28;97369;-72
2022/06/02 05:52:34;;;;;;;7.28;6.50;;;;;;;14.65;85.07;96167.50;10361087;28;98604;-71
2022/06/02 06:04:28;;;;;;;11.07;6.95;;;;;;;14.92;84.88;96185.38;10324507;28;96953;-71
2022/06/02 06:09:40;;;;;;;8.52;6.80;;;;;;;15.17;84.83;96187.00;10313613;28;98577;-71
2022/06/02 06:14:56;;;;;;;8.65;6.68;;;;;;;15.42;84.46;96206.81;10321726;28;98143;-71
2022/06/02 06:20:08;;;;;;;10.18;6.82;;;;;;;15.59;83.70;96193.53;10322947;28;97223;-70
2022/06/02 06:25:32;;;;;;;10.38;6.45;;;;;;;15.71;84.09;96165.75;10317802;28;99112;-71
2022/06/02 06:30:45;;;;;;;10.20;6.97;;;;;;;15.82;83.99;96178.47;10317589;28;96728;-71
2022/06/02 06:36:07;;;;;;;9.13;6.80;;;;;;;15.98;83.76;96195.94;10308999;28;96836;-71
2022/06/02 06:41:24;;;;;;;7.20;6.38;;;;;;;16.22;83.18;96201.88;10312649;28;99438;-71
2022/06/02 06:46:36;;;;;;;8.85;7.22;;;;;;;16.46;83.16;96216.56;10320281;28;97632;-71
2022/06/02 06:52:01;;;;;;;9.50;6.55;;;;;;;16.59;82.50;96211.47;10319992;28;99173;-70
2022/06/02 06:57:11;;;;;;;11.55;6.68;;;;;;;16.69;82.43;96212.97;10314809;28;96973;-71
2022/06/02 07:02:24;;;;;;;9.43;6.75;;;;;;;16.56;81.71;96203.09;10319526;28;97762;-71
2022/06/02 07:07:37;;;;;;;12.40;7.72;;;;;;;16.45;82.03;96185.94;10312574;28;96921;-70
2022/06/02 07:12:53;;;;;;;8.35;6.22;;;;;;;16.29;82.26;96186.97;10331595;28;97002;-71
2022/06/02 07:18:04;;;;;;;8.32;4.63;;;;;;;16.23;81.77;96172.72;10337683;28;96803;-71
2022/06/02 07:23:16;;;;;;;;;;;;;;;16.23;81.57;96172.72;10333026;28;97715;-71
2022/06/02 07:28:33;;;;;;;10.57;5.07;;;;;;;16.32;81.36;96176.06;10335373;28;97044;-71
2022/06/02 07:33:52;;;;;;;6.55;4.80;;;;;;;16.51;81.07;96161.47;10333608;28;96894;-71
2022/06/02 07:39:13;;;;;;;7.80;4.70;;;;;;;16.68;80.41;96155.97;10310565;28;96743;-71
2022/06/02 07:44:41;;;;;;;6.07;4.38;;;;;;;16.91;80.28;96159.25;10322629;28;96968;-71
2022/06/02 07:49:56;;;;;;;4.50;3.80;;;;;;;17.00;79.46;96162.56;10318233;28;97124;-71
2022/06/02 07:55:13;;;;;;;4.60;3.42;;;;;;;17.11;78.51;96175.25;10312078;28;96937;-71
2022/06/02 08:00:19;;;;;;;4.10;3.35;;;;;;;17.09;77.87;96166.72;10334969;28;96855;-71
2022/06/02 08:05:34;;;;;;;4.78;3.42;;;;;;;17.24;77.56;96179.81;10302629;28;96953;-70
2022/06/02 08:10:45;;;;;;;;;;;;;;;17.46;77.21;96187.72;10316560;28;96731;-71
2022/06/02 08:15:55;;;;;;;5.30;3.15;;;;;;;17.54;77.49;96184.91;10339427;28;96943;-71
2022/06/02 08:21:15;;;;;;;5.82;3.47;;;;;;;17.75;76.63;96182.22;10311298;28;96978;-71
2022/06/02 08:26:25;;;;;;;6.70;3.17;;;;;;;17.95;76.07;96192.13;10302942;28;97053;-71
2022/06/02 08:31:45;;;;;;;6.68;3.70;;;;;;;18.16;75.67;96200.97;10302025;28;97521;-71
2022/06/02 08:36:57;;;;;;;5.60;4.43;;;;;;;18.42;75.03;96198.44;10310324;28;97330;-71
2022/06/02 08:42:21;;;;;;;7.50;4.57;;;;;;;18.68;74.41;96208.28;10310450;28;96842;-71
2022/06/02 08:47:54;;;;;;;11.32;3.88;;;;;;;18.82;73.50;96198.53;10304607;28;98337;-71
2022/06/02 08:53:36;;;;;;;8.90;4.65;;;;;;;19.17;73.24;96201.06;10299676;28;96820;-72
2022/06/02 08:59:01;;;;;;;6.30;4.53;;;;;;;19.45;72.82;96205.34;10319774;28;96982;-71
2022/06/02 09:04:41;;;;;;;6.40;3.80;;;;;;;19.85;71.83;96207.97;10310814;28;97401;-71
2022/06/02 09:10:18;;;;;;;9.13;4.43;;;;;;;20.17;70.65;96210.78;10311908;28;96954;-71
2022/06/02 09:15:49;;;;;;;10.60;4.82;;;;;;;20.19;70.43;96214.03;10322011;28;96894;-71
2022/06/02 09:21:07;;;;;;;9.68;5.82;;;;;;;20.43;69.12;96207.22;10309624;28;96775;-71
2022/06/02 09:26:26;;;;;;;6.55;5.40;;;;;;;20.81;67.95;96205.63;10306011;28;97406;-71
2022/06/02 09:32:04;;;;;;;7.32;4.38;;;;;;;21.35;66.54;96217.53;10330320;28;96742;-71
2022/06/02 09:37:40;;;;;;;6.38;4.82;;;;;;;21.65;65.94;96238.97;10319630;28;97135;-71
2022/06/02 09:43:33;;;;;;;9.00;4.63;;;;;;;21.62;65.69;96246.56;10319830;28;97308;-71
2022/06/02 09:48:52;;;;;;;10.50;5.60;;;;;;;21.68;65.38;96251.03;10320297;28;96901;-71
2022/06/02 09:54:25;;;;;;;6.28;4.85;;;;;;;21.58;65.11;96258.66;10314989;28;96832;-71
2022/06/02 09:59:36;;;;;;;8.07;4.72;;;;;;;21.82;64.00;96239.25;10319714;28;97047;-71
2022/06/02 10:04:58;;;;;;;5.97;4.20;;;;;;;21.95;62.56;96232.97;10333594;28;96911;-71
2022/06/02 10:10:24;;;;;;;5.63;3.03;;;;;;;21.74;62.16;96226.22;10313568;28;99810;-71
2022/06/02 10:16:02;;;;;;;5.28;4.78;;;;;;;21.95;61.49;96226.84;10327777;28;96948;-71
2022/06/02 10:21:15;;;;;;;5.15;3.00;;;;;;;21.87;62.48;96215.47;10313190;28;96964;-71
2022/06/02 10:26:35;;;;;;;3.07;2.17;;;;;;;21.87;60.28;96220.78;10306837;28;102799;-72
2022/06/02 10:32:01;;;;;;;5.40;2.40;;;;;;;22.18;59.30;96213.72;10319676;28;96750;-71
2022/06/02 10:37:33;;;;;;;4.03;2.00;;;;;;;22.54;57.50;96204.09;10314646;28;97356;-71
2022/06/02 10:42:58;;;;;;;3.25;2.30;;;;;;;22.35;58.39;96205.97;10317744;28;96952;-71
2022/06/02 10:48:23;;;;;;;3.88;3.15;;;;;;;22.14;58.69;96204.53;10325762;28;96920;-71
2022/06/02 10:54:06;;;;;;;3.83;2.50;;;;;;;21.95;58.51;96194.94;10304255;28;96989;-71
2022/06/02 10:59:43;;;;;;;4.88;3.20;;;;;;;21.86;59.08;96197.88;10316012;28;96796;-71
2022/06/02 11:05:31;;;;;;;4.18;2.83;;;;;;;21.78;59.13;96195.53;10319209;28;99754;-71
2022/06/02 11:11:26;;;;;;;5.93;2.40;;;;;;;21.82;60.78;96178.09;10318680;28;96979;-72
2022/06/02 11:17:25;;;;;;;5.10;2.50;;;;;;;22.16;59.44;96175.06;10327043;28;97324;-71
2022/06/02 11:23:08;;;;;;;5.47;2.72;;;;;;;22.72;57.79;96178.50;10318150;28;96949;-71
2022/06/02 11:29:17;;;;;;;3.10;2.47;;;;;;;22.83;57.70;96169.72;10334244;28;100087;-71
2022/06/02 11:35:05;;;;;;;3.42;2.40;;;;;;;22.98;56.64;96162.13;10177048;28;97114;-71
2022/06/02 11:40:25;;;;;;;3.25;2.30;;;;;;;22.96;57.50;96145.56;10086784;28;96990;-71
2022/06/02 11:46:08;;;;;;;4.22;2.42;;;;;;;23.20;56.63;96126.94;10084697;28;97087;-72
2022/06/02 11:51:36;;;;;;;4.20;2.90;;;;;;;22.85;55.89;96101.06;10085366;28;97629;-71
2022/06/02 11:56:51;;;;;;;5.50;3.00;;;;;;;22.44;57.21;96113.31;10087295;28;96951;-71
2022/06/02 12:02:33;;;;;;;4.68;2.72;;;;;;;22.33;57.67;96106.09;10095633;28;96992;-72
2022/06/02 12:08:11;;;;;;;4.68;2.47;;;;;;;22.12;57.81;96102.06;10212654;28;96935;-71
2022/06/02 12:13:35;;;;;;;4.15;2.50;;;;;;;22.18;58.10;96078.03;10214662;28;96976;-71
2022/06/02 12:18:44;;;;;;;;;;;;;;;22.52;58.11;96073.09;10311387;28;96814;-71
2022/06/02 12:24:03;;;;;;;4.32;2.42;;;;;;;22.60;55.84;96082.63;10317903;28;97051;-71
2022/06/02 12:29:26;;;;;;;3.15;2.20;;;;;;;22.66;56.36;96078.22;10301763;28;97067;-71
2022/06/02 12:34:55;;;;;;;2.88;1.85;;;;;;;22.95;54.54;96071.22;10316495;28;96935;-71
2022/06/02 12:40:15;;;;;;;4.28;1.70;;;;;;;23.07;55.22;96072.03;10310302;28;96769;-72
2022/06/02 12:45:40;;;;;;;3.67;1.83;;;;;;;22.97;52.84;96059.28;10310231;28;96744;-71
2022/06/02 12:50:52;;;;;;;4.13;1.55;;;;;;;23.03;52.08;96062.88;10335570;28;98970;-72
2022/06/02 12:56:09;;;;;;;2.72;1.40;;;;;;;23.24;51.41;96064.16;10302430;28;98637;-71
2022/06/02 13:01:27;;;;;;;2.90;1.63;;;;;;;23.50;50.37;96048.75;10317589;28;96880;-71
2022/06/02 13:07:21;;;;;;;2.67;1.40;;;;;;;23.68;49.29;96059.25;10341093;28;96884;-71
2022/06/02 13:13:02;;;;;;;4.03;1.73;;;;;;;24.13;48.88;96061.25;10317197;28;97927;-71
2022/06/02 13:18:34;;;;;;;3.53;1.58;;;;;;;24.42;47.73;96055.13;10316646;28;97134;-72
2022/06/02 13:24:02;;;;;;;3.30;1.60;;;;;;;24.67;47.78;96055.53;10331723;28;96837;-71
2022/06/02 13:29:40;;;;;;;2.05;1.50;;;;;;;24.82;48.10;96051.56;10306772;28;100107;-71
2022/06/02 13:35:24;;;;;;;2.38;1.50;;;;;;;24.99;47.28;96057.69;10336031;28;96885;-71
2022/06/02 13:40:35;;;;;;;4.32;1.25;;;;;;;25.07;49.71;96059.16;10323093;28;97085;-71
2022/06/02 13:46:20;;;;;;;5.38;1.52;;;;;;;25.40;47.75;96070.84;10315826;28;96721;-72
2022/06/02 13:52:02;;;;;;;3.25;1.50;;;;;;;25.52;46.94;96063.53;10328359;28;96861;-71
2022/06/02 13:57:32;;;;;;;2.70;1.50;;;;;;;25.53;47.06;96077.72;10315949;28;96955;-72
2022/06/02 14:03:03;;;;;;;3.75;1.55;;;;;;;25.12;46.77;96082.47;10309261;28;96767;-72
2022/06/02 14:08:48;;;;;;;3.47;1.48;;;;;;;24.64;48.38;96073.91;10304833;28;96942;-72
2022/06/02 14:14:16;;;;;;;2.97;1.60;;;;;;;24.21;51.07;96069.94;10320888;28;96797;-72
2022/06/02 14:19:39;;;;;;;3.45;1.70;;;;;;;23.86;51.16;96071.66;10315154;28;96704;-72
2022/06/02 14:24:54;;;;;;;4.80;1.97;;;;;;;23.81;53.42;96054.72;10321984;28;97050;-71
2022/06/02 14:30:06;;;;;;;4.55;1.95;;;;;;;24.38;51.27;96049.41;10314034;28;96808;-72
2022/06/02 14:35:25;;;;;;;6.47;1.80;;;;;;;24.64;51.72;96033.84;10305602;28;96788;-72
2022/06/02 14:40:36;;;;;;;3.08;1.60;;;;;;;25.12;50.69;96024.47;10325844;28;96956;-71
2022/06/02 14:46:25;;;;;;;4.15;1.50;;;;;;;26.28;47.71;96030.78;10313753;28;96777;-72
2022/06/02 14:51:32;;;;;;;4.68;1.98;;;;;;;27.17;45.05;96035.81;10310402;28;97035;-72
2022/06/02 14:56:51;;;;;;;3.55;1.50;;;;;;;28.54;42.85;96032.09;10307326;28;96801;-72
2022/06/02 15:02:02;;;;;;;2.22;1.50;;;;;;;29.76;41.01;96018.78;10325119;28;96960;-72
2022/06/02 15:07:20;;;;;;;2.75;1.30;;;;;;;29.77;38.74;96009.63;10314426;28;98600;-72
2022/06/02 15:12:59;;;;;;;2.83;1.30;;;;;;;29.10;40.68;96014.38;10313131;28;97006;-72
2022/06/02 15:18:16;;;;;;;2.53;1.10;;;;;;;28.26;39.28;96025.31;10325571;28;96921;-72
2022/06/02 15:23:58;;;;;;;2.55;1.17;;;;;;;28.47;38.07;96012.75;10304337;28;96829;-72
2022/06/02 15:29:41;;;;;;;2.20;1.10;;;;;;;29.64;35.27;96005.63;10315707;28;96921;-73
2022/06/02 15:35:28;;;;;;;1.80;1.10;;;;;;;29.68;37.41;96005.91;10323823;28;97863;-72
2022/06/02 15:41:13;;;;;;;2.55;1.38;;;;;;;30.59;35.77;95993.00;10164684;28;96821;-72
2022/06/02 15:46:54;;;;;;;2.55;1.38;;;;;;;28.92;39.31;96000.41;10168335;28;97159;-72
2022/06/02 15:52:34;;;;;;;4.13;1.20;;;;;;;27.24;40.56;96009.59;10157043;28;98223;-71
2022/06/02 15:58:00;;;;;;;1.98;1.35;;;;;;;26.02;41.49;96023.50;10160699;28;97040;-72
2022/06/02 16:03:42;;;;;;;3.08;1.95;;;;;;;25.65;42.38;96021.47;10160372;28;97450;-72
2022/06/02 16:15:17;;;;;;;2.88;1.48;;;;;;;25.34;44.78;95997.78;10295316;28;100019;-72
2022/06/02 16:21:09;;;;;;;2.80;1.50;;;;;;;24.99;45.17;95985.56;10323817;28;96885;-72
2022/06/02 16:26:52;;;;;;;3.15;1.60;;;;;;;24.71;46.41;95991.75;10200519;28;97191;-72
2022/06/02 16:32:09;;;;;;;2.53;1.70;;;;;;;24.20;47.90;96004.28;10203587;28;98444;-72
2022/06/02 16:37:23;;;;;;;7.43;1.77;;;;;;;23.89;50.23;96001.00;10189981;28;98465;-72
2022/06/02 16:43:04;;;;;;;4.10;1.87;;;;;;;23.70;49.50;96025.16;10208471;28;97063;-71
2022/06/02 16:48:59;;;;;;;2.47;1.98;;;;;;;23.43;49.76;96043.56;10208542;28;96985;-71
2022/06/02 16:54:57;;;;;;;4.85;1.55;;;;;;;23.27;48.90;96023.75;10183597;28;96930;-72
2022/06/02 17:00:12;;;;;;;2.92;1.60;;;;;;;22.87;51.08;96058.22;10260412;28;97077;-72
2022/06/02 17:05:40;;;;;;;7.15;2.00;;;;;;;22.48;53.36;96039.97;10308014;28;96783;-72
2022/06/02 17:10:48;;;;;;;3.33;1.80;;;;;;;22.43;53.92;96022.00;10325153;28;97221;-72
2022/06/02 17:16:29;;;;;;;4.72;1.90;;;;;;;22.55;55.13;96039.88;10322441;28;96881;-72
2022/06/02 17:21:49;;;;;;;4.47;1.98;;;;;;;24.54;51.71;96012.31;10136357;28;98669;-72
2022/06/02 17:27:09;;;;;;;4.32;1.60;;;;;;;24.86;51.12;96026.75;10132985;28;97030;-72
2022/06/02 17:32:41;;;;;;;3.00;1.50;;;;;;;25.05;51.37;96007.81;10146419;28;97310;-72
2022/06/02 17:38:35;;;;;;;4.82;1.55;;;;;;;24.46;51.25;96011.66;10132857;28;98368;-72
2022/06/02 17:43:51;;;;;;;3.13;1.70;;;;;;;23.84;52.12;96017.72;10042561;28;97175;-72
2022/06/02 17:49:22;;;;;;;3.80;1.58;;;;;;;22.82;55.75;96024.28;10032477;29;96827;-72
2022/06/02 17:55:07;;;;;;;3.00;2.00;;;;;;;22.25;56.47;96004.25;10043147;29;97486;-71
2022/06/02 18:00:17;;;;;;;;;;;;;;;21.97;56.11;96027.97;10235636;28;97003;-71
2022/06/02 18:05:33;;;;;;;6.88;1.80;;;;;;;21.56;57.36;96021.50;10252860;28;97069;-71
2022/06/02 18:10:51;;;;;;;5.90;2.00;;;;;;;21.38;58.43;96014.31;10250713;28;97050;-71
2022/06/02 18:16:09;;;;;;;7.25;3.20;;;;;;;21.38;58.46;96019.63;10259624;28;97238;-71
2022/06/02 18:21:38;;;;;;;6.00;2.78;;;;;;;21.31;58.26;96014.38;10315832;28;97108;-71
2022/06/02 18:27:05;;;;;;;4.18;1.90;;;;;;;21.15;58.30;96022.94;10309444;28;100017;-71
2022/06/02 18:32:45;;;;;;;3.17;1.15;;;;;;;20.87;58.86;96014.41;10304766;28;96939;-71
2022/06/02 18:38:38;;;;;;;2.63;1.50;;;;;;;20.55;59.77;96013.66;10322775;28;97020;-71
2022/06/02 18:44:13;;;;;;;2.75;1.38;;;;;;;20.19;61.59;96013.25;10151324;28;100695;-71
2022/06/02 18:49:44;;;;;;;3.88;1.73;;;;;;;20.04;62.46;95999.47;10155395;28;99195;-71
2022/06/02 18:55:10;;;;;;;4.10;1.88;;;;;;;19.85;62.79;95979.22;10157539;28;98286;-71
2022/06/02 19:00:22;;;;;;;5.15;1.80;;;;;;;19.58;63.11;95987.25;10144084;28;96976;-71
2022/06/02 19:17:28;;;;;;;3.22;1.60;;;;;;;19.10;61.60;96029.97;10319333;28;97069;-71
2022/06/02 19:22:48;;;;;;;3.38;1.65;;;;;;;19.10;61.53;96027.34;10323059;28;97716;-71
2022/06/02 19:28:14;;;;;;;2.50;1.30;;;;;;;19.05;61.57;96042.00;10313224;28;97239;-72
2022/06/02 19:33:25;;;;;;;4.05;1.42;;;;;;;18.83;63.49;96054.63;10319739;28;97358;-71
2022/06/02 19:38:37;;;;;;;5.32;1.80;;;;;;;18.56;64.64;96000.06;10315071;28;96950;-71
2022/06/02 19:43:48;;;;;;;5.25;2.45;;;;;;;18.52;65.30;96012.09;10318226;28;97171;-71
2022/06/02 19:48:57;;;;;;;5.30;2.40;;;;;;;18.50;65.41;96031.59;10319400;28;96985;-71
2022/06/02 19:54:05;;;;;;;5.80;2.30;;;;;;;18.27;65.78;96015.31;10327879;28;97622;-71
2022/06/02 19:59:16;;;;;;;7.93;2.05;;;;;;;17.99;66.45;96018.91;10324710;28;98811;-71
2022/06/02 20:04:26;;;;;;;6.13;1.90;;;;;;;17.75;67.81;96022.88;10325662;28;97061;-71
2022/06/02 20:09:34;;;;;;;5.65;2.10;;;;;;;17.75;66.92;96034.28;10324398;28;97179;-71
2022/06/02 20:14:41;;;;;;;2.85;2.05;;;;;;;17.46;67.97;96060.97;10324893;28;96728;-71
2022/06/02 20:19:48;;;;;;;6.40;1.70;;;;;;;17.27;68.58;96068.56;10324492;28;97006;-71
2022/06/02 20:24:57;;;;;;;4.55;1.98;;;;;;;17.17;68.96;96083.94;10314679;28;99195;-71
2022/06/02 20:30:21;;;;;;;5.65;2.42;;;;;;;17.21;68.99;96084.34;10319098;28;102558;-71
2022/06/02 20:35:27;;;;;;;7.20;2.83;;;;;;;17.25;69.22;96065.31;10319528;28;97672;-72
2022/06/02 20:40:35;;;;;;;6.43;2.20;;;;;;;17.16;69.47;96087.56;10322831;28;100273;-71
2022/06/02 20:45:44;;;;;;;5.20;1.90;;;;;;;16.84;70.35;96100.31;10321449;28;97810;-71
2022/06/02 20:50:53;;;;;;;2.85;1.88;;;;;;;16.67;71.12;96094.47;10314522;28;98698;-71
2022/06/02 20:56:02;;;;;;;5.35;1.90;;;;;;;16.53;71.14;96090.88;10318160;28;99036;-71
2022/06/02 21:01:22;;;;;;;3.58;1.60;;;;;;;16.41;71.63;96100.31;10316822;28;98738;-71
2022/06/02 21:06:38;;;;;;;5.63;2.05;;;;;;;16.44;70.59;96090.19;10316767;28;97174;-71
2022/06/02 21:11:41;;;;;;;2.97;1.75;;;;;;;16.58;70.39;96085.88;10319065;28;98520;-71
2022/06/02 21:16:51;;;;;;;5.50;1.70;;;;;;;16.70;69.99;96093.28;10326431;28;96921;-71
2022/06/02 21:22:11;;;;;;;13.13;6.00;;;;;;;16.77;69.51;96104.72;10327374;28;97112;-71
2022/06/02 21:27:25;;;;;;;5.30;1.90;;;;;;;16.76;69.45;96089.91;10329841;28;96827;-71
2022/06/02 21:32:37;;;;;;;2.40;1.40;;;;;;;16.76;69.35;96097.81;10314684;28;97021;-71
2022/06/02 21:37:48;;;;;;;4.03;2.25;;;;;;;16.80;69.73;96099.09;10307537;28;96773;-71
2022/06/02 21:42:56;;;;;;;3.42;1.92;;;;;;;16.81;69.44;96101.53;10310699;28;96856;-71
2022/06/02 21:48:11;;;;;;;4.93;1.65;;;;;;;16.71;69.58;96108.91;10322959;28;96733;-71
2022/06/02 21:53:24;;;;;;;2.90;1.70;;;;;;;16.71;69.20;96118.63;10326647;28;96816;-71
2022/06/02 21:58:35;;;;;;;7.38;1.85;;;;;;;16.61;70.52;96118.97;10319247;28;100910;-71
2022/06/02 22:03:44;;;;;;;7.00;1.70;;;;;;;16.43;71.04;96124.66;10320390;28;99357;-71
2022/06/02 22:08:58;;;;;;;3.03;1.77;;;;;;;16.37;71.14;96104.34;10319584;28;100685;-72
2022/06/02 22:14:10;;;;;;;2.50;1.53;;;;;;;16.22;71.45;96084.13;10322811;28;97766;-71
2022/06/02 22:19:22;;;;;;;5.93;2.17;;;;;;;16.12;70.97;96065.16;10321153;28;97730;-71
2022/06/02 22:24:50;;;;;;;4.30;2.03;;;;;;;16.04;71.37;96060.00;10323696;28;98146;-70
2022/06/02 22:30:06;;;;;;;3.90;1.75;;;;;;;15.90;71.53;96084.56;10319241;28;99215;-71
2022/06/02 22:35:21;;;;;;;6.05;1.85;;;;;;;15.95;71.74;96095.38;10334841;28;97728;-71
2022/06/02 22:40:46;;;;;;;2.78;1.90;;;;;;;16.06;71.15;96084.31;10333924;28;98048;-71
2022/06/02 22:46:07;;;;;;;4.90;1.60;;;;;;;16.11;71.34;96078.50;10331511;28;99266;-71
2022/06/02 22:51:26;;;;;;;5.20;1.80;;;;;;;16.10;71.08;96088.22;10329286;28;98313;-71
2022/06/02 22:56:39;;;;;;;6.68;1.70;;;;;;;16.14;71.58;96084.22;10316291;28;98295;-71
2022/06/02 23:02:02;;;;;;;3.85;1.90;;;;;;;16.11;71.04;96079.31;10319065;28;98548;-72
2022/06/02 23:07:27;;;;;;;4.05;1.70;;;;;;;15.96;70.74;96081.16;10320128;28;97609;-70
2022/06/02 23:12:47;;;;;;;3.30;1.50;;;;;;;15.88;71.57;96072.38;10319494;28;99106;-71
2022/06/02 23:18:06;;;;;;;4.65;1.80;;;;;;;15.86;71.80;96070.94;10320218;28;99261;-70
2022/06/02 23:23:41;;;;;;;5.38;2.10;;;;;;;15.81;72.40;96079.38;10323341;28;97344;-71
2022/06/02 23:28:55;;;;;;;5.30;2.38;;;;;;;15.77;72.07;96072.88;10317675;28;96853;-71
2022/06/02 23:34:13;;;;;;;3.55;2.20;;;;;;;15.82;72.43;96065.19;10318088;28;98723;-71
2022/06/02 23:39:40;;;;;;;6.07;2.05;;;;;;;15.57;73.21;96083.09;10316321;28;98708;-71
2022/06/02 23:44:54;;;;;;;5.45;2.13;;;;;;;15.29;74.42;96096.09;10316431;28;97691;-71
2022/06/02 23:50:17;;;;;;;6.35;2.10;;;;;;;15.24;73.90;96087.94;10320750;28;97919;-71
2022/06/02 23:56:04;;;;;;;6.50;2.28;;;;;;;15.19;75.03;96075.28;10314209;28;97717;-71
